createdAt,value
2018-08-30T00:02:26.172Z,22.71
2018-08-30T00:05:06.191Z,22.70
2018-08-30T00:07:33.333Z,22.65
2018-08-30T00:10:03.872Z,22.59
2018-08-30T00:12:37.707Z,22.59
2018-08-30T00:15:06.475Z,22.61
2018-08-30T00:17:34.887Z,22.55
2018-08-30T00:20:06.488Z,22.50
2018-08-30T00:22:34.790Z,22.49
2018-08-30T00:25:03.288Z,22.49
2018-08-30T00:27:31.733Z,22.49
2018-08-30T00:30:04.951Z,22.44
2018-08-30T00:32:36.366Z,22.39
2018-08-30T00:35:04.847Z,22.40
2018-08-30T00:37:33.173Z,22.31
2018-08-30T00:40:02.944Z,22.30
2018-08-30T00:42:34.489Z,22.26
2018-08-30T00:45:02.960Z,22.17
2018-08-30T00:47:31.443Z,22.15
2018-08-30T00:50:02.005Z,22.15
2018-08-30T00:52:28.677Z,22.10
2018-08-30T00:54:57.082Z,22.09
2018-08-30T00:57:28.065Z,22.06
2018-08-30T00:59:56.431Z,21.94
2018-08-30T01:02:29.867Z,21.89
2018-08-30T01:04:57.143Z,21.89
2018-08-30T01:07:28.519Z,21.82
2018-08-30T01:10:01.540Z,21.85
2018-08-30T01:12:32.040Z,21.80
2018-08-30T01:15:00.450Z,21.69
2018-08-30T01:17:28.954Z,21.69
2018-08-30T01:19:57.313Z,21.71
2018-08-30T01:22:28.336Z,21.64
2018-08-30T01:24:56.722Z,21.68
2018-08-30T01:27:25.000Z,21.70
2018-08-30T01:29:56.464Z,21.67
2018-08-30T01:32:24.846Z,21.65
2018-08-30T01:34:55.181Z,21.59
2018-08-30T01:37:25.043Z,21.62
2018-08-30T01:39:53.511Z,21.66
2018-08-30T01:42:21.923Z,21.64
2018-08-30T01:44:57.327Z,21.57
2018-08-30T01:47:25.875Z,21.58
2018-08-30T01:50:02.972Z,21.51
2018-08-30T01:52:53.490Z,21.58
2018-08-30T01:55:29.167Z,21.59
2018-08-30T01:58:00.325Z,21.57
2018-08-30T02:00:43.488Z,21.53
2018-08-30T02:03:12.920Z,21.49
2018-08-30T02:05:44.733Z,21.51
2018-08-30T02:08:14.065Z,21.47
2018-08-30T02:10:51.442Z,21.48
2018-08-30T02:13:42.066Z,21.48
2018-08-30T02:16:19.047Z,21.51
2018-08-30T02:18:52.677Z,21.46
2018-08-30T02:21:21.340Z,21.44
2018-08-30T02:23:52.917Z,21.43
2018-08-30T02:26:24.494Z,21.44
2018-08-30T02:28:55.664Z,21.38
2018-08-30T02:31:24.198Z,21.34
2018-08-30T02:33:52.557Z,21.26
2018-08-30T02:36:23.977Z,21.26
2018-08-30T02:38:52.241Z,21.29
2018-08-30T02:41:20.505Z,21.23
2018-08-30T02:43:51.554Z,21.18
2018-08-30T02:46:20.179Z,21.11
2018-08-30T02:48:48.706Z,21.02
2018-08-30T02:51:20.683Z,20.96
2018-08-30T02:53:53.176Z,20.95
2018-08-30T02:56:24.800Z,20.83
2018-08-30T02:58:53.213Z,20.84
2018-08-30T03:01:22.314Z,20.78
2018-08-30T03:03:55.435Z,20.77
2018-08-30T03:06:26.257Z,20.59
2018-08-30T03:08:56.838Z,20.61
2018-08-30T03:11:29.452Z,20.52
2018-08-30T03:13:55.432Z,20.53
2018-08-30T03:16:23.946Z,20.57
2018-08-30T03:18:52.544Z,20.51
2018-08-30T03:21:21.076Z,20.42
2018-08-30T03:23:49.421Z,20.42
2018-08-30T03:26:22.902Z,20.38
2018-08-30T03:28:51.592Z,20.35
2018-08-30T03:31:25.982Z,20.36
2018-08-30T03:33:57.470Z,20.33
2018-08-30T03:36:32.298Z,20.30
2018-08-30T03:39:00.812Z,20.26
2018-08-30T03:41:31.991Z,20.23
2018-08-30T03:44:00.785Z,20.20
2018-08-30T03:46:34.318Z,20.16
2018-08-30T03:49:05.620Z,20.16
2018-08-30T03:51:35.371Z,20.15
2018-08-30T03:54:02.555Z,20.11
2018-08-30T03:56:33.628Z,20.16
2018-08-30T03:59:08.754Z,20.21
2018-08-30T04:01:42.304Z,20.18
2018-08-30T04:04:10.930Z,20.14
2018-08-30T04:06:46.781Z,20.07
2018-08-30T04:09:17.647Z,20.06
2018-08-30T04:11:50.578Z,20.08
2018-08-30T04:14:19.008Z,20.09
2018-08-30T04:16:47.617Z,20.11
2018-08-30T04:19:20.948Z,20.14
2018-08-30T04:21:51.942Z,20.04
2018-08-30T04:24:23.479Z,19.95
2018-08-30T04:26:58.833Z,19.86
2018-08-30T04:29:25.015Z,19.92
2018-08-30T04:31:53.433Z,19.97
2018-08-30T04:34:21.986Z,19.97
2018-08-30T04:36:51.761Z,20.00
2018-08-30T04:39:21.257Z,19.98
2018-08-30T04:41:55.829Z,19.94
2018-08-30T04:44:24.948Z,19.92
2018-08-30T04:46:53.062Z,19.90
2018-08-30T04:49:21.292Z,19.86
2018-08-30T04:51:49.604Z,19.86
2018-08-30T04:55:09.920Z,19.82
2018-08-30T04:58:53.011Z,19.77
2018-08-30T05:05:19.445Z,19.82
2018-08-30T05:08:28.369Z,19.79
2018-08-30T05:11:18.233Z,19.76
2018-08-30T05:14:09.070Z,19.73
2018-08-30T06:03:03.159Z,19.50
2018-08-30T06:05:31.642Z,19.45
2018-08-30T06:08:00.320Z,19.47
2018-08-30T06:10:29.097Z,19.52
2018-08-30T06:12:57.640Z,19.52
2018-08-30T06:15:26.236Z,19.51
2018-08-30T06:17:54.772Z,19.44
2018-08-30T06:20:23.320Z,19.40
2018-08-30T06:22:51.890Z,19.34
2018-08-30T06:25:20.390Z,19.35
2018-08-30T06:27:48.960Z,19.26
2018-08-30T06:30:18.326Z,19.23
2018-08-30T06:32:45.835Z,19.22
2018-08-30T06:35:14.108Z,19.26
2018-08-30T06:37:42.400Z,19.29
2018-08-30T06:40:10.718Z,19.31
2018-08-30T06:42:39.004Z,19.29
2018-08-30T06:45:07.398Z,19.27
2018-08-30T06:47:35.660Z,19.26
2018-08-30T06:50:03.880Z,19.19
2018-08-30T06:52:32.182Z,19.20
2018-08-30T06:55:00.590Z,19.19
2018-08-30T06:57:28.840Z,19.05
2018-08-30T06:59:57.146Z,19.08
2018-08-30T07:02:25.404Z,19.02
2018-08-30T07:04:54.526Z,19.12
2018-08-30T07:07:22.812Z,19.11
2018-08-30T07:09:51.087Z,19.09
2018-08-30T07:12:19.484Z,19.13
2018-08-30T07:14:47.812Z,19.12
2018-08-30T07:17:16.022Z,19.12
2018-08-30T07:19:44.620Z,19.16
2018-08-30T07:22:12.916Z,19.15
2018-08-30T07:24:41.208Z,19.19
2018-08-30T07:27:09.492Z,19.11
2018-08-30T07:29:37.748Z,19.11
2018-08-30T07:32:06.639Z,19.16
2018-08-30T07:34:35.122Z,19.09
2018-08-30T07:37:03.388Z,19.09
2018-08-30T07:39:31.624Z,19.12
2018-08-30T07:42:00.071Z,19.14
2018-08-30T07:44:28.413Z,19.08
2018-08-30T07:46:56.609Z,19.06
2018-08-30T07:49:24.921Z,19.07
2018-08-30T07:51:53.316Z,19.08
2018-08-30T07:54:21.641Z,19.07
2018-08-30T07:56:50.104Z,19.14
2018-08-30T07:59:18.488Z,19.11
2018-08-30T08:01:46.956Z,19.11
2018-08-30T08:04:15.370Z,19.05
2018-08-30T08:06:43.856Z,19.04
2018-08-30T08:09:12.123Z,18.95
2018-08-30T08:11:40.401Z,18.95
2018-08-30T08:14:08.968Z,19.02
2018-08-30T08:16:37.294Z,19.01
2018-08-30T08:19:05.554Z,19.06
2018-08-30T08:21:33.848Z,18.99
2018-08-30T08:24:02.119Z,18.96
2018-08-30T08:26:30.375Z,18.95
2018-08-30T08:28:58.684Z,18.95
2018-08-30T08:31:26.948Z,19.00
2018-08-30T08:33:55.372Z,18.99
2018-08-30T08:36:23.601Z,19.06
2018-08-30T08:38:51.891Z,19.01
2018-08-30T08:41:20.195Z,18.88
2018-08-30T08:43:48.479Z,18.93
2018-08-30T08:46:16.805Z,19.04
2018-08-30T08:48:45.136Z,19.07
2018-08-30T08:51:13.415Z,19.05
2018-08-30T08:53:41.687Z,19.08
2018-08-30T08:56:09.932Z,19.09
2018-08-30T08:58:38.239Z,19.19
2018-08-30T09:01:06.806Z,19.15
2018-08-30T09:03:35.188Z,19.14
2018-08-30T09:06:03.682Z,19.21
2018-08-30T09:08:32.028Z,19.20
2018-08-30T09:11:00.170Z,19.22
2018-08-30T09:13:28.504Z,19.18
2018-08-30T09:15:56.799Z,19.23
2018-08-30T09:18:25.117Z,19.17
2018-08-30T09:20:53.473Z,19.12
2018-08-30T09:23:21.855Z,19.17
2018-08-30T09:25:50.106Z,19.14
2018-08-30T09:28:18.485Z,19.18
2018-08-30T09:30:46.924Z,19.18
2018-08-30T09:33:15.246Z,19.23
2018-08-30T09:35:43.565Z,19.25
2018-08-30T09:38:11.893Z,19.34
2018-08-30T09:40:40.272Z,19.39
2018-08-30T09:43:08.487Z,19.44
2018-08-30T09:45:36.949Z,19.50
2018-08-30T09:48:05.463Z,19.53
2018-08-30T09:50:33.715Z,19.58
2018-08-30T09:53:01.934Z,19.67
2018-08-30T09:55:30.173Z,19.65
2018-08-30T09:57:58.625Z,19.68
2018-08-30T10:00:44.651Z,19.64
2018-08-30T10:03:12.934Z,19.63
2018-08-30T10:05:41.216Z,19.65
2018-08-30T10:08:09.625Z,19.60
2018-08-30T10:10:37.843Z,19.55
2018-08-30T10:13:06.223Z,19.55
2018-08-30T10:15:34.420Z,19.56
2018-08-30T10:18:02.876Z,19.67
2018-08-30T10:20:31.208Z,19.62
2018-08-30T10:22:59.660Z,19.66
2018-08-30T10:25:27.986Z,19.68
2018-08-30T10:27:56.354Z,19.72
2018-08-30T10:30:24.607Z,19.76
2018-08-30T10:32:52.880Z,19.80
2018-08-30T10:35:21.167Z,19.78
2018-08-30T10:37:49.509Z,19.78
2018-08-30T10:40:18.040Z,19.79
2018-08-30T10:42:46.559Z,19.72
2018-08-30T10:45:14.718Z,19.71
2018-08-30T10:47:42.949Z,19.64
2018-08-30T10:50:11.287Z,19.65
2018-08-30T10:52:39.617Z,19.60
2018-08-30T10:55:07.949Z,19.57
2018-08-30T10:57:36.207Z,19.56
2018-08-30T11:00:04.641Z,19.51
2018-08-30T11:02:32.944Z,19.52
2018-08-30T11:05:01.196Z,19.54
2018-08-30T11:07:29.636Z,19.44
2018-08-30T11:09:57.966Z,19.39
2018-08-30T11:12:26.395Z,19.27
2018-08-30T11:14:54.535Z,19.26
2018-08-30T11:17:22.785Z,19.23
2018-08-30T11:19:51.114Z,19.17
2018-08-30T11:22:19.604Z,19.11
2018-08-30T11:24:48.074Z,19.08
2018-08-30T11:27:16.404Z,19.07
2018-08-30T11:29:44.683Z,19.07
2018-08-30T11:32:13.030Z,19.09
2018-08-30T11:34:41.389Z,19.02
2018-08-30T11:37:09.685Z,19.06
2018-08-30T11:39:37.961Z,18.94
2018-08-30T11:42:06.304Z,18.95
2018-08-30T11:44:34.566Z,18.98
2018-08-30T11:47:02.889Z,18.91
2018-08-30T11:49:31.205Z,18.86
2018-08-30T11:51:59.452Z,18.89
2018-08-30T11:54:27.769Z,18.89
2018-08-30T11:56:56.128Z,18.94
2018-08-30T11:59:24.363Z,18.97
2018-08-30T12:01:52.691Z,18.86
2018-08-30T12:04:20.949Z,18.91
2018-08-30T12:06:49.368Z,18.90
2018-08-30T12:09:17.573Z,18.91
2018-08-30T12:11:45.946Z,18.90
2018-08-30T12:14:14.153Z,18.89
2018-08-30T12:16:42.509Z,18.87
2018-08-30T12:19:10.965Z,18.86
2018-08-30T12:21:39.180Z,18.83
2018-08-30T12:24:13.372Z,18.90
2018-08-30T12:26:41.789Z,18.83
2018-08-30T12:29:15.364Z,18.73
2018-08-30T12:31:43.987Z,18.62
2018-08-30T12:34:12.277Z,18.67
2018-08-30T12:36:43.421Z,18.63
2018-08-30T12:39:13.564Z,18.64
2018-08-30T12:41:42.000Z,18.70
2018-08-30T12:44:10.581Z,18.65
2018-08-30T12:46:39.030Z,18.59
2018-08-30T12:49:07.344Z,18.61
2018-08-30T12:51:36.069Z,18.54
2018-08-30T12:54:04.235Z,18.60
2018-08-30T12:56:32.760Z,18.69
2018-08-30T12:59:17.361Z,18.75
2018-08-30T13:01:46.447Z,18.79
2018-08-30T13:04:15.023Z,18.81
2018-08-30T13:07:01.856Z,18.84
2018-08-30T13:09:30.144Z,18.79
2018-08-30T13:11:59.707Z,18.77
2018-08-30T13:14:28.420Z,18.73
2018-08-30T13:16:56.950Z,18.62
2018-08-30T13:19:25.603Z,18.56
2018-08-30T13:21:53.741Z,18.52
2018-08-30T13:24:22.357Z,18.45
2018-08-30T13:26:50.691Z,18.49
2018-08-30T13:29:19.225Z,18.51
2018-08-30T13:31:47.645Z,18.55
2018-08-30T13:34:16.510Z,18.54
2018-08-30T13:36:44.828Z,18.46
2018-08-30T13:39:13.783Z,18.51
2018-08-30T13:41:42.705Z,18.51
2018-08-30T13:44:11.780Z,18.55
2018-08-30T13:46:41.083Z,18.58
2018-08-30T13:49:10.109Z,18.65
2018-08-30T13:51:38.272Z,18.65
2018-08-30T13:54:06.599Z,18.64
2018-08-30T13:56:34.926Z,18.58
2018-08-30T13:59:03.363Z,18.69
2018-08-30T14:01:31.892Z,18.67
2018-08-30T14:04:00.173Z,18.71
2018-08-30T14:06:28.597Z,18.71
2018-08-30T14:08:57.101Z,18.74
2018-08-30T14:11:25.242Z,18.72
2018-08-30T14:13:53.606Z,18.71
2018-08-30T14:16:21.558Z,18.80
2018-08-30T14:18:50.251Z,18.90
2018-08-30T14:21:18.474Z,18.77
2018-08-30T14:23:46.826Z,18.90
2018-08-30T14:26:15.112Z,18.92
2018-08-30T14:28:43.464Z,18.88
2018-08-30T14:31:11.818Z,18.95
2018-08-30T14:33:40.131Z,18.97
2018-08-30T14:36:08.410Z,19.04
2018-08-30T14:38:36.760Z,19.13
2018-08-30T14:41:05.498Z,19.10
2018-08-30T14:43:33.585Z,19.12
2018-08-30T14:46:01.927Z,19.10
2018-08-30T14:48:30.150Z,19.14
2018-08-30T14:50:58.618Z,19.10
2018-08-30T14:53:27.079Z,19.05
2018-08-30T14:55:55.214Z,19.05
2018-08-30T14:58:23.542Z,19.05
2018-08-30T15:00:51.890Z,19.00
2018-08-30T15:03:20.126Z,19.07
2018-08-30T15:05:48.845Z,19.05
2018-08-30T15:08:17.018Z,19.09
2018-08-30T15:10:45.213Z,19.09
2018-08-30T15:13:13.801Z,19.11
2018-08-30T15:15:42.049Z,19.11
2018-08-30T15:18:10.351Z,19.12
2018-08-30T15:20:38.614Z,19.12
2018-08-30T15:23:07.490Z,19.12
2018-08-30T15:25:35.841Z,19.14
2018-08-30T15:28:04.606Z,19.12
2018-08-30T15:30:32.751Z,19.11
2018-08-30T15:33:01.000Z,19.18
2018-08-30T15:35:29.750Z,19.20
2018-08-30T15:45:08.588Z,19.23
2018-08-30T15:47:37.239Z,19.30
2018-08-30T15:50:05.977Z,19.20
2018-08-30T15:52:34.243Z,19.25
2018-08-30T15:55:02.530Z,19.28
2018-08-30T15:57:32.101Z,19.34
2018-08-30T16:00:06.392Z,19.38
2018-08-30T16:02:35.654Z,19.30
2018-08-30T16:05:13.426Z,19.34
2018-08-30T16:07:53.080Z,19.30
2018-08-30T16:10:50.794Z,19.40
2018-08-30T16:13:24.601Z,19.43
2018-08-30T16:16:02.199Z,19.41
2018-08-30T16:18:49.211Z,19.44
2018-08-30T16:24:09.566Z,19.47
2018-08-30T16:27:01.399Z,19.53
2018-08-30T16:33:38.742Z,19.61
2018-08-30T16:36:23.265Z,19.75
2018-08-30T16:38:50.339Z,19.68
2018-08-30T16:41:37.219Z,19.72
2018-08-30T16:44:10.553Z,19.68
2018-08-30T16:47:05.807Z,19.64
2018-08-30T16:49:41.790Z,19.60
2018-08-30T16:52:17.936Z,19.56
2018-08-30T16:55:01.925Z,19.53
2018-08-30T16:57:38.516Z,19.52
2018-08-30T17:00:10.000Z,19.48
2018-08-30T17:02:40.451Z,19.41
2018-08-30T17:05:15.663Z,19.42
2018-08-30T17:07:53.122Z,19.29
2018-08-30T17:10:21.990Z,19.20
2018-08-30T17:12:50.462Z,19.15
2018-08-30T17:15:19.213Z,19.08
2018-08-30T17:17:47.616Z,19.09
2018-08-30T17:20:37.248Z,19.10
2018-08-30T17:23:08.167Z,19.06
2018-08-30T17:25:36.817Z,18.96
2018-08-30T17:28:05.629Z,18.96
2018-08-30T17:30:33.957Z,18.92
2018-08-30T17:33:03.020Z,18.95
2018-08-30T17:35:31.208Z,18.87
2018-08-30T17:38:03.255Z,18.89
2018-08-30T17:40:31.473Z,18.83
2018-08-30T17:43:00.045Z,18.76
2018-08-30T17:45:31.416Z,18.80
2018-08-30T17:47:59.642Z,18.72
2018-08-30T17:50:28.173Z,18.77
2018-08-30T17:52:59.695Z,18.69
2018-08-30T17:55:28.350Z,18.64
2018-08-30T17:57:59.698Z,18.56
2018-08-30T18:00:28.307Z,18.48
2018-08-30T18:02:57.125Z,18.43
2018-08-30T18:05:25.830Z,18.37
2018-08-30T18:07:54.274Z,18.38
2018-08-30T18:10:22.718Z,18.33
2018-08-30T18:12:51.054Z,18.35
2018-08-30T18:15:20.930Z,18.23
2018-08-30T18:17:51.117Z,18.13
2018-08-30T18:20:23.724Z,18.17
2018-08-30T18:23:37.642Z,18.12
2018-08-30T18:26:12.597Z,18.13
2018-08-30T18:28:54.530Z,18.06
2018-08-30T18:31:52.347Z,18.09
2018-08-30T18:34:31.119Z,17.94
2018-08-30T18:37:11.856Z,17.93
2018-08-30T18:39:41.731Z,17.91
2018-08-30T18:42:12.929Z,17.89
2018-08-30T18:44:40.104Z,17.94
2018-08-30T18:47:08.570Z,17.83
2018-08-30T18:52:54.889Z,17.89
2018-08-30T18:55:27.436Z,17.71
2018-08-30T18:58:12.774Z,17.74
2018-08-30T19:05:20.071Z,17.76
2018-08-30T19:08:07.011Z,17.76
2018-08-30T19:10:41.897Z,17.72
2018-08-30T19:13:13.003Z,17.64
2018-08-30T19:16:06.472Z,17.54
2018-08-30T19:18:56.120Z,17.61
2018-08-30T19:21:30.274Z,17.49
2018-08-30T19:23:59.214Z,17.48
2018-08-30T19:26:32.809Z,17.47
2018-08-30T19:29:05.331Z,17.41
2018-08-30T19:31:43.247Z,17.40
2018-08-30T19:34:11.501Z,17.40
2018-08-30T19:36:39.734Z,17.40
2018-08-30T19:39:11.736Z,17.41
2018-08-30T19:41:42.895Z,17.52
2018-08-30T19:44:24.281Z,17.43
2018-08-30T19:46:52.898Z,17.39
2018-08-30T19:49:31.284Z,17.34
2018-08-30T19:51:57.936Z,17.29
2018-08-30T19:54:26.214Z,17.37
2018-08-30T19:56:54.621Z,17.28
2018-08-30T19:59:23.102Z,17.21
2018-08-30T20:01:51.520Z,17.27
2018-08-30T20:04:19.847Z,17.24
2018-08-30T20:06:48.279Z,17.15
2018-08-30T20:09:16.795Z,17.14
2018-08-30T20:11:45.076Z,17.17
2018-08-30T20:14:13.465Z,17.13
2018-08-30T20:16:41.799Z,17.08
2018-08-30T20:19:10.628Z,17.11
2018-08-30T20:21:41.794Z,17.11
2018-08-30T20:24:10.660Z,17.05
2018-08-30T20:26:38.899Z,17.05
2018-08-30T20:29:07.372Z,17.05
2018-08-30T20:31:35.757Z,17.09
2018-08-30T20:34:04.199Z,17.09
2018-08-30T20:36:35.720Z,17.07
2018-08-30T20:39:05.529Z,17.04
2018-08-30T20:41:34.047Z,16.95
2018-08-30T20:44:04.373Z,16.99
2018-08-30T20:46:32.778Z,17.01
2018-08-30T20:49:01.172Z,17.00
2018-08-30T20:51:29.718Z,16.87
2018-08-30T20:53:58.019Z,16.89
2018-08-30T20:56:26.318Z,16.83
2018-08-30T20:58:54.980Z,16.84
2018-08-30T21:01:25.510Z,16.82
2018-08-30T21:03:53.991Z,16.86
2018-08-30T21:06:22.362Z,16.81
2018-08-30T21:08:52.747Z,16.81
2018-08-30T21:11:25.591Z,16.79
2018-08-30T21:14:23.135Z,16.77
2018-08-30T21:16:54.105Z,16.82
2018-08-30T21:19:30.047Z,16.76
2018-08-30T21:22:14.746Z,16.72
2018-08-30T21:24:54.271Z,16.57
2018-08-30T21:27:43.193Z,16.67
2018-08-30T21:30:12.195Z,16.69
2018-08-30T21:33:10.410Z,16.66
2018-08-30T21:35:39.550Z,16.57
2018-08-30T21:38:23.668Z,16.62
2018-08-30T21:40:59.803Z,16.58
2018-08-30T21:43:52.443Z,16.61
2018-08-30T21:46:41.588Z,16.58
2018-08-30T21:49:52.249Z,16.52
2018-08-30T21:52:51.138Z,16.54
2018-08-30T21:55:38.475Z,16.56
2018-08-30T21:58:34.841Z,16.54
2018-08-30T22:04:23.626Z,16.50
2018-08-30T22:07:19.696Z,16.51
2018-08-30T22:10:29.087Z,16.49
2018-08-30T22:13:12.783Z,16.47
2018-08-30T22:16:13.971Z,16.44
2018-08-30T22:19:10.284Z,16.40
2018-08-30T22:22:15.729Z,16.31
2018-08-30T22:25:04.408Z,16.31
2018-08-30T22:28:17.446Z,16.36
2018-08-30T22:31:01.670Z,16.43
2018-08-30T22:34:01.498Z,16.34
2018-08-30T22:43:30.299Z,16.31
2018-08-30T22:46:11.585Z,16.26
2018-08-30T22:48:57.761Z,16.30
2018-08-30T22:51:51.414Z,16.23
2018-08-30T22:54:30.718Z,16.23
2018-08-30T22:57:27.327Z,16.24
2018-08-30T23:00:22.188Z,16.22
2018-08-30T23:03:05.350Z,16.19
2018-08-30T23:05:54.594Z,16.15
2018-08-30T23:08:59.565Z,16.14
2018-08-30T23:12:05.556Z,16.11
2018-08-30T23:14:51.296Z,16.07
2018-08-30T23:18:05.581Z,16.11
2018-08-30T23:20:52.616Z,16.06
2018-08-30T23:23:40.342Z,16.05
2018-08-30T23:26:17.628Z,16.03
2018-08-30T23:29:32.093Z,15.99
2018-08-30T23:32:19.441Z,15.95
2018-08-30T23:35:17.102Z,15.98
2018-08-30T23:37:51.547Z,16.01
2018-08-30T23:40:48.536Z,15.97
2018-08-30T23:43:23.566Z,15.92
2018-08-30T23:49:06.074Z,15.89
2018-08-30T23:52:02.157Z,15.92
2018-08-30T23:54:55.674Z,15.89
2018-08-30T23:57:44.561Z,15.86
